sensor_id;sensor_type;location;lat;lon;timestamp;pressure;altitude;pressure_sealevel;temperature;humidity
61674;BME280;47573;43.832;5.974;2023-04-19T00:04:36;95208.31;;;23.96;61.34
61674;BME280;47573;43.832;5.974;2023-04-19T00:11:18;95209.06;;;23.92;61.05
61674;BME280;47573;43.832;5.974;2023-04-19T00:17:59;95200.59;;;23.88;61.20
61674;BME280;47573;43.832;5.974;2023-04-19T00:24:39;95206.78;;;23.84;60.95
61674;BME280;47573;43.832;5.974;2023-04-19T00:31:21;95208.63;;;23.78;61.07
61674;BME280;47573;43.832;5.974;2023-04-19T00:38:01;95209.13;;;23.75;60.74
61674;BME280;47573;43.832;5.974;2023-04-19T00:44:43;95200.88;;;23.70;60.94
61674;BME280;47573;43.832;5.974;2023-04-19T00:51:25;95203.50;;;23.65;60.94
61674;BME280;47573;43.832;5.974;2023-04-19T00:58:07;95197.75;;;23.62;61.17
61674;BME280;47573;43.832;5.974;2023-04-19T01:04:48;95195.25;;;23.60;61.02
61674;BME280;47573;43.832;5.974;2023-04-19T01:11:30;95187.00;;;23.55;61.07
61674;BME280;47573;43.832;5.974;2023-04-19T01:18:10;95184.19;;;23.50;61.18
61674;BME280;47573;43.832;5.974;2023-04-19T01:24:52;95189.06;;;23.48;61.07
61674;BME280;47573;43.832;5.974;2023-04-19T01:31:33;95185.78;;;23.46;60.83
61674;BME280;47573;43.832;5.974;2023-04-19T01:38:13;95174.81;;;23.41;61.08
61674;BME280;47573;43.832;5.974;2023-04-19T01:44:55;95172.56;;;23.38;60.69
61674;BME280;47573;43.832;5.974;2023-04-19T01:51:37;95168.69;;;23.34;61.03
61674;BME280;47573;43.832;5.974;2023-04-19T01:58:17;95166.22;;;23.33;60.57
61674;BME280;47573;43.832;5.974;2023-04-19T02:04:59;95176.75;;;23.29;60.78
61674;BME280;47573;43.832;5.974;2023-04-19T02:11:40;95174.28;;;23.28;60.90
61674;BME280;47573;43.832;5.974;2023-04-19T02:18:20;95170.97;;;23.26;60.78
61674;BME280;47573;43.832;5.974;2023-04-19T02:25:02;95175.09;;;23.28;60.41
61674;BME280;47573;43.832;5.974;2023-04-19T02:31:43;95157.09;;;23.27;60.14
61674;BME280;47573;43.832;5.974;2023-04-19T02:38:23;95155.47;;;23.26;59.83
61674;BME280;47573;43.832;5.974;2023-04-19T02:45:07;95154.31;;;23.22;59.96
61674;BME280;47573;43.832;5.974;2023-04-19T02:51:49;95151.84;;;23.21;59.86
61674;BME280;47573;43.832;5.974;2023-04-19T02:58:30;95150.66;;;23.16;59.61
61674;BME280;47573;43.832;5.974;2023-04-19T03:05:12;95158.25;;;23.14;59.53
61674;BME280;47573;43.832;5.974;2023-04-19T03:11:52;95153.63;;;23.15;59.35
61674;BME280;47573;43.832;5.974;2023-04-19T03:18:33;95149.50;;;23.12;59.45
61674;BME280;47573;43.832;5.974;2023-04-19T03:25:15;95156.31;;;23.10;59.34
61674;BME280;47573;43.832;5.974;2023-04-19T03:31:55;95152.16;;;23.07;59.23
61674;BME280;47573;43.832;5.974;2023-04-19T03:38:36;95151.00;;;23.03;59.03
61674;BME280;47573;43.832;5.974;2023-04-19T03:45:18;95139.78;;;23.00;59.20
61674;BME280;47573;43.832;5.974;2023-04-19T03:51:58;95145.22;;;23.00;58.60
61674;BME280;47573;43.832;5.974;2023-04-19T03:58:39;95145.22;;;23.00;58.59
61674;BME280;47573;43.832;5.974;2023-04-19T04:05:21;95147.88;;;22.95;58.96
61674;BME280;47573;43.832;5.974;2023-04-19T04:12:01;95154.88;;;22.91;59.07
61674;BME280;47573;43.832;5.974;2023-04-19T04:18:42;95147.19;;;22.88;58.94
61674;BME280;47573;43.832;5.974;2023-04-19T04:25:24;95154.31;;;22.89;58.91
61674;BME280;47573;43.832;5.974;2023-04-19T04:32:06;95154.31;;;22.89;58.65
61674;BME280;47573;43.832;5.974;2023-04-19T04:38:46;95159.41;;;22.85;58.96
61674;BME280;47573;43.832;5.974;2023-04-19T04:45:28;95158.59;;;22.85;58.67
61674;BME280;47573;43.832;5.974;2023-04-19T04:52:09;95157.91;;;22.78;59.00
61674;BME280;47573;43.832;5.974;2023-04-19T04:58:49;95167.16;;;22.77;58.73
61674;BME280;47573;43.832;5.974;2023-04-19T05:05:31;95168.72;;;22.73;58.91
61674;BME280;47573;43.832;5.974;2023-04-19T05:12:12;95167.63;;;22.74;58.59
61674;BME280;47573;43.832;5.974;2023-04-19T05:18:52;95166.00;;;22.73;58.70
61674;BME280;47573;43.832;5.974;2023-04-19T05:25:34;95169.78;;;22.72;58.81
61674;BME280;47573;43.832;5.974;2023-04-19T05:32:15;95175.22;;;22.72;58.78
61674;BME280;47573;43.832;5.974;2023-04-19T05:38:56;95171.44;;;22.73;58.50
61674;BME280;47573;43.832;5.974;2023-04-19T05:45:38;95165.50;;;22.76;58.28
61674;BME280;47573;43.832;5.974;2023-04-19T05:52:18;95167.75;;;22.79;58.25
61674;BME280;47573;43.832;5.974;2023-04-19T05:58:58;95166.66;;;22.80;58.26
61674;BME280;47573;43.832;5.974;2023-04-19T06:05:40;95164.03;;;22.85;57.92
61674;BME280;47573;43.832;5.974;2023-04-19T06:12:21;95170.63;;;22.89;57.66
61674;BME280;47573;43.832;5.974;2023-04-19T06:19:01;95164.84;;;22.85;55.97
61674;BME280;47573;43.832;5.974;2023-04-19T06:25:43;95166.97;;;22.83;55.87
61674;BME280;47573;43.832;5.974;2023-04-19T06:32:24;95163.53;;;22.88;55.74
61674;BME280;47573;43.832;5.974;2023-04-19T06:39:04;95161.31;;;22.85;52.24
61674;BME280;47573;43.832;5.974;2023-04-19T06:45:46;95151.41;;;22.51;46.84
61674;BME280;47573;43.832;5.974;2023-04-19T06:52:27;95158.47;;;22.35;46.56
61674;BME280;47573;43.832;5.974;2023-04-19T06:59:08;95160.22;;;22.29;46.45
61674;BME280;47573;43.832;5.974;2023-04-19T07:05:50;95158.97;;;22.49;46.09
61674;BME280;47573;43.832;5.974;2023-04-19T07:12:30;95161.13;;;22.47;46.56
61674;BME280;47573;43.832;5.974;2023-04-19T07:19:11;95150.91;;;22.54;45.87
61674;BME280;47573;43.832;5.974;2023-04-19T07:25:53;95162.97;;;22.58;47.15
61674;BME280;47573;43.832;5.974;2023-04-19T07:32:34;95153.28;;;22.62;46.85
61674;BME280;47573;43.832;5.974;2023-04-19T07:39:14;95157.75;;;22.68;47.12
61674;BME280;47573;43.832;5.974;2023-04-19T07:45:56;95150.31;;;22.63;47.01
61674;BME280;47573;43.832;5.974;2023-04-19T07:52:36;95153.31;;;22.78;47.21
61674;BME280;47573;43.832;5.974;2023-04-19T07:59:17;95153.56;;;22.77;46.42
61674;BME280;47573;43.832;5.974;2023-04-19T08:05:59;95150.31;;;22.80;46.12
61674;BME280;47573;43.832;5.974;2023-04-19T08:12:40;95139.13;;;22.93;45.95
61674;BME280;47573;43.832;5.974;2023-04-19T08:19:21;95143.06;;;23.02;47.50
61674;BME280;47573;43.832;5.974;2023-04-19T08:26:02;95142.75;;;23.15;47.81
61674;BME280;47573;43.832;5.974;2023-04-19T08:32:43;95145.72;;;23.30;48.25
61674;BME280;47573;43.832;5.974;2023-04-19T08:39:23;95144.25;;;23.39;48.09
61674;BME280;47573;43.832;5.974;2023-04-19T08:46:06;95148.19;;;23.48;47.04
61674;BME280;47573;43.832;5.974;2023-04-19T08:52:47;95146.19;;;23.60;45.79
61674;BME280;47573;43.832;5.974;2023-04-19T08:59:28;95155.03;;;23.67;46.80
61674;BME280;47573;43.832;5.974;2023-04-19T09:06:10;95150.22;;;23.74;48.16
61674;BME280;47573;43.832;5.974;2023-04-19T09:13:01;95147.06;;;23.82;48.28
61674;BME280;47573;43.832;5.974;2023-04-19T09:19:44;95142.66;;;23.81;46.90
61674;BME280;47573;43.832;5.974;2023-04-19T09:26:27;95136.84;;;23.94;47.96
61674;BME280;47573;43.832;5.974;2023-04-19T09:33:07;95125.41;;;23.97;48.12
61674;BME280;47573;43.832;5.974;2023-04-19T09:39:48;95123.03;;;24.01;47.93
61674;BME280;47573;43.832;5.974;2023-04-19T09:46:31;95120.56;;;24.00;46.33
61674;BME280;47573;43.832;5.974;2023-04-19T09:53:12;95117.31;;;24.03;45.29
61674;BME280;47573;43.832;5.974;2023-04-19T09:59:53;95107.69;;;24.17;46.53
61674;BME280;47573;43.832;5.974;2023-04-19T10:06:35;95111.75;;;24.14;43.88
61674;BME280;47573;43.832;5.974;2023-04-19T10:13:17;95107.31;;;23.86;44.74
61674;BME280;47573;43.832;5.974;2023-04-19T10:20:03;95096.44;;;23.91;46.30
61674;BME280;47573;43.832;5.974;2023-04-19T10:27:11;95091.38;;;24.00;46.98
61674;BME280;47573;43.832;5.974;2023-04-19T10:33:52;95091.22;;;24.07;47.42
61674;BME280;47573;43.832;5.974;2023-04-19T10:40:54;95085.75;;;24.07;48.05
61674;BME280;47573;43.832;5.974;2023-04-19T10:47:43;95082.47;;;24.05;48.30
61674;BME280;47573;43.832;5.974;2023-04-19T10:54:28;95072.03;;;24.02;48.76
61674;BME280;47573;43.832;5.974;2023-04-19T11:01:31;95053.09;;;24.12;48.58
61674;BME280;47573;43.832;5.974;2023-04-19T11:08:21;95046.59;;;24.18;48.93
61674;BME280;47573;43.832;5.974;2023-04-19T11:15:02;95038.34;;;24.13;49.33
61674;BME280;47573;43.832;5.974;2023-04-19T11:21:45;95026.94;;;24.16;49.35
61674;BME280;47573;43.832;5.974;2023-04-19T11:28:27;95018.22;;;24.19;49.48
61674;BME280;47573;43.832;5.974;2023-04-19T11:35:08;95005.72;;;24.23;49.62
61674;BME280;47573;43.832;5.974;2023-04-19T11:41:49;94995.94;;;24.27;50.02
61674;BME280;47573;43.832;5.974;2023-04-19T11:48:34;94989.47;;;24.33;49.65
61674;BME280;47573;43.832;5.974;2023-04-19T11:55:18;94975.81;;;24.33;50.11
61674;BME280;47573;43.832;5.974;2023-04-19T12:02:09;94973.13;;;24.38;50.40
61674;BME280;47573;43.832;5.974;2023-04-19T12:08:53;94973.75;;;24.45;50.20
61674;BME280;47573;43.832;5.974;2023-04-19T12:15:40;94968.28;;;24.45;50.20
61674;BME280;47573;43.832;5.974;2023-04-19T12:22:21;94965.56;;;24.50;50.41
61674;BME280;47573;43.832;5.974;2023-04-19T12:29:04;94954.97;;;24.53;50.14
61674;BME280;47573;43.832;5.974;2023-04-19T12:35:45;94945.47;;;24.61;48.93
61674;BME280;47573;43.832;5.974;2023-04-19T12:42:25;94938.97;;;24.67;48.19
61674;BME280;47573;43.832;5.974;2023-04-19T12:49:07;94936.19;;;24.62;48.48
61674;BME280;47573;43.832;5.974;2023-04-19T12:55:48;94925.56;;;24.65;47.03
61674;BME280;47573;43.832;5.974;2023-04-19T13:02:28;94907.31;;;24.71;47.76
61674;BME280;47573;43.832;5.974;2023-04-19T13:09:10;94901.38;;;24.74;47.38
61674;BME280;47573;43.832;5.974;2023-04-19T13:15:51;94892.06;;;24.75;47.11
61674;BME280;47573;43.832;5.974;2023-04-19T13:22:31;94885.00;;;24.79;46.31
61674;BME280;47573;43.832;5.974;2023-04-19T13:29:13;94879.59;;;24.84;46.29
61674;BME280;47573;43.832;5.974;2023-04-19T13:35:54;94868.09;;;24.87;45.68
61674;BME280;47573;43.832;5.974;2023-04-19T13:42:34;94861.59;;;24.93;44.76
61674;BME280;47573;43.832;5.974;2023-04-19T13:49:17;94845.78;;;25.00;44.32
61674;BME280;47573;43.832;5.974;2023-04-19T13:55:57;94833.19;;;24.94;44.17
61674;BME280;47573;43.832;5.974;2023-04-19T14:02:38;94834.84;;;25.00;40.26
61674;BME280;47573;43.832;5.974;2023-04-19T14:09:20;94834.84;;;25.00;41.00
61674;BME280;47573;43.832;5.974;2023-04-19T14:16:00;94819.03;;;24.97;39.50
61674;BME280;47573;43.832;5.974;2023-04-19T14:22:41;94821.75;;;25.02;38.50
61674;BME280;47573;43.832;5.974;2023-04-19T14:29:23;94817.41;;;25.01;38.20
61674;BME280;47573;43.832;5.974;2023-04-19T14:36:04;94812.44;;;24.98;38.67
61674;BME280;47573;43.832;5.974;2023-04-19T14:42:44;94807.50;;;24.90;40.79
61674;BME280;47573;43.832;5.974;2023-04-19T14:49:26;94807.50;;;24.90;41.70
61674;BME280;47573;43.832;5.974;2023-04-19T14:56:07;94799.88;;;24.92;43.05
61674;BME280;47573;43.832;5.974;2023-04-19T15:02:47;94805.34;;;24.92;43.37
61674;BME280;47573;43.832;5.974;2023-04-19T15:09:29;94800.44;;;24.94;43.77
61674;BME280;47573;43.832;5.974;2023-04-19T15:16:10;94792.75;;;24.91;44.52
61674;BME280;47573;43.832;5.974;2023-04-19T15:22:50;94790.84;;;24.87;43.97
61674;BME280;47573;43.832;5.974;2023-04-19T15:29:33;94792.19;;;24.84;44.37
61674;BME280;47573;43.832;5.974;2023-04-19T15:36:14;94781.78;;;24.76;45.01
61674;BME280;47573;43.832;5.974;2023-04-19T15:42:54;94772.97;;;24.69;46.31
61674;BME280;47573;43.832;5.974;2023-04-19T15:49:36;94771.13;;;24.74;46.61
61674;BME280;47573;43.832;5.974;2023-04-19T15:56:16;94773.59;;;24.76;47.11
61674;BME280;47573;43.832;5.974;2023-04-19T16:02:57;94779.06;;;24.76;46.92
61674;BME280;47573;43.832;5.974;2023-04-19T16:09:39;94783.44;;;24.82;47.14
61674;BME280;47573;43.832;5.974;2023-04-19T16:16:20;94799.28;;;24.85;47.66
61674;BME280;47573;43.832;5.974;2023-04-19T16:23:00;94796.56;;;24.85;47.71
61674;BME280;47573;43.832;5.974;2023-04-19T16:29:42;94792.19;;;24.84;47.94
61674;BME280;47573;43.832;5.974;2023-04-19T16:36:22;94782.88;;;24.75;48.60
61674;BME280;47573;43.832;5.974;2023-04-19T16:43:03;94782.56;;;24.71;49.44
61674;BME280;47573;43.832;5.974;2023-04-19T16:49:45;94793.28;;;24.78;49.16
61674;BME280;47573;43.832;5.974;2023-04-19T16:56:25;94815.63;;;24.75;49.54
61674;BME280;47573;43.832;5.974;2023-04-19T17:03:06;94807.47;;;24.80;49.57
61674;BME280;47573;43.832;5.974;2023-04-19T17:09:48;94790.22;;;24.74;49.96
61674;BME280;47573;43.832;5.974;2023-04-19T17:16:28;94792.16;;;24.74;49.79
61674;BME280;47573;43.832;5.974;2023-04-19T17:23:09;94795.44;;;24.76;50.31
61674;BME280;47573;43.832;5.974;2023-04-19T17:29:51;94781.78;;;24.81;50.18
61674;BME280;47573;43.832;5.974;2023-04-19T17:36:31;94783.97;;;24.79;50.42
61674;BME280;47573;43.832;5.974;2023-04-19T17:43:11;94776.88;;;24.78;50.73
61674;BME280;47573;43.832;5.974;2023-04-19T17:50:04;94775.22;;;24.77;50.64
61674;BME280;47573;43.832;5.974;2023-04-19T17:56:45;94773.59;;;24.76;51.16
61674;BME280;47573;43.832;5.974;2023-04-19T18:03:25;94779.63;;;24.78;51.15
61674;BME280;47573;43.832;5.974;2023-04-19T18:10:08;94776.88;;;24.78;51.55
61674;BME280;47573;43.832;5.974;2023-04-19T18:16:48;94770.59;;;24.78;51.15
61674;BME280;47573;43.832;5.974;2023-04-19T18:23:29;94769.50;;;24.73;50.91
61674;BME280;47573;43.832;5.974;2023-04-19T18:30:11;94767.03;;;24.77;51.57
61674;BME280;47573;43.832;5.974;2023-04-19T18:36:58;94774.38;;;24.71;51.56
61674;BME280;47573;43.832;5.974;2023-04-19T18:43:39;94785.53;;;24.65;49.35
61674;BME280;47573;43.832;5.974;2023-04-19T18:50:21;94788.22;;;24.55;51.59
61674;BME280;47573;43.832;5.974;2023-04-19T18:57:01;94796.97;;;24.57;51.98
61674;BME280;47573;43.832;5.974;2023-04-19T19:03:41;94803.53;;;24.61;51.93
61674;BME280;47573;43.832;5.974;2023-04-19T19:10:23;94808.97;;;24.61;52.45
61674;BME280;47573;43.832;5.974;2023-04-19T19:17:04;94810.63;;;24.62;52.53
61674;BME280;47573;43.832;5.974;2023-04-19T19:23:44;94808.47;;;24.64;53.19
61674;BME280;47573;43.832;5.974;2023-04-19T19:30:26;94810.63;;;24.62;53.68
61674;BME280;47573;43.832;5.974;2023-04-19T19:37:07;94797.81;;;24.67;53.49
61674;BME280;47573;43.832;5.974;2023-04-19T19:43:47;94811.72;;;24.61;53.64
61674;BME280;47573;43.832;5.974;2023-04-19T19:50:29;94816.06;;;24.62;53.76
61674;BME280;47573;43.832;5.974;2023-04-19T19:57:10;94826.44;;;24.60;54.11
61674;BME280;47573;43.832;5.974;2023-04-19T20:03:50;94842.25;;;24.58;54.32
61674;BME280;47573;43.832;5.974;2023-04-19T20:10:35;94832.41;;;24.52;54.86
61674;BME280;47573;43.832;5.974;2023-04-19T20:17:15;94830.78;;;24.51;54.67
61674;BME280;47573;43.832;5.974;2023-04-19T20:23:56;94816.56;;;24.49;54.87
61674;BME280;47573;43.832;5.974;2023-04-19T20:30:38;94805.66;;;24.49;54.81
61674;BME280;47573;43.832;5.974;2023-04-19T20:37:19;94806.16;;;24.46;54.89
61674;BME280;47573;43.832;5.974;2023-04-19T20:43:59;94789.50;;;24.42;54.84
61674;BME280;47573;43.832;5.974;2023-04-19T20:50:41;94794.13;;;24.42;55.35
61674;BME280;47573;43.832;5.974;2023-04-19T20:57:21;94788.69;;;24.42;55.05
61674;BME280;47573;43.832;5.974;2023-04-19T21:04:02;94783.50;;;24.40;55.52
61674;BME280;47573;43.832;5.974;2023-04-19T21:10:44;94793.56;;;24.35;55.64
61674;BME280;47573;43.832;5.974;2023-04-19T21:17:25;94791.34;;;24.32;55.92
61674;BME280;47573;43.832;5.974;2023-04-19T21:24:06;94789.75;;;24.36;55.42
61674;BME280;47573;43.832;5.974;2023-04-19T21:30:48;94790.28;;;24.33;55.67
61674;BME280;47573;43.832;5.974;2023-04-19T21:37:29;94788.72;;;24.47;55.27
61674;BME280;47573;43.832;5.974;2023-04-19T21:44:09;94801.75;;;24.40;55.00
61674;BME280;47573;43.832;5.974;2023-04-19T21:50:51;94801.75;;;24.40;54.93
61674;BME280;47573;43.832;5.974;2023-04-19T21:57:32;94798.47;;;24.38;54.87
61674;BME280;47573;43.832;5.974;2023-04-19T22:04:12;94791.41;;;24.37;54.99
61674;BME280;47573;43.832;5.974;2023-04-19T22:10:55;94805.03;;;24.37;55.00
61674;BME280;47573;43.832;5.974;2023-04-19T22:17:36;94806.38;;;24.34;54.83
61674;BME280;47573;43.832;5.974;2023-04-19T22:24:17;94796.53;;;24.33;55.03
61674;BME280;47573;43.832;5.974;2023-04-19T22:31:00;94786.41;;;24.29;54.71
61674;BME280;47573;43.832;5.974;2023-04-19T22:37:40;94784.78;;;24.28;54.91
61674;BME280;47573;43.832;5.974;2023-04-19T22:44:21;94788.03;;;24.25;54.70
61674;BME280;47573;43.832;5.974;2023-04-19T22:51:03;94777.38;;;24.23;54.73
61674;BME280;47573;43.832;5.974;2023-04-19T22:57:43;94768.66;;;24.21;54.72
61674;BME280;47573;43.832;5.974;2023-04-19T23:04:24;94772.47;;;24.20;54.90
61674;BME280;47573;43.832;5.974;2023-04-19T23:11:06;94760.19;;;24.18;55.04
61674;BME280;47573;43.832;5.974;2023-04-19T23:17:46;94760.69;;;24.15;54.68
61674;BME280;47573;43.832;5.974;2023-04-19T23:24:27;94763.69;;;24.13;54.90
61674;BME280;47573;43.832;5.974;2023-04-19T23:31:09;94756.28;;;24.09;54.70
61674;BME280;47573;43.832;5.974;2023-04-19T23:37:49;94749.72;;;24.05;55.02
61674;BME280;47573;43.832;5.974;2023-04-19T23:44:30;94746.41;;;24.03;54.95
61674;BME280;47573;43.832;5.974;2023-04-19T23:51:11;94743.41;;;23.99;55.00
61674;BME280;47573;43.832;5.974;2023-04-19T23:57:52;94727.81;;;23.94;55.14
